createdAt,value
2023-04-06T00:00:41.889Z,100049.41
2023-04-06T00:04:55.386Z,100046.94
2023-04-06T00:09:08.065Z,100043.38
2023-04-06T00:13:20.824Z,100040.75
2023-04-06T00:17:36.177Z,100031.13
2023-04-06T00:21:48.857Z,100030.13
2023-04-06T00:26:02.670Z,100028.28
2023-04-06T00:30:15.880Z,100028.28
2023-04-06T00:34:28.352Z,100019.59
2023-04-06T00:38:40.959Z,100016.06
2023-04-06T00:42:53.499Z,100023.78
2023-04-06T00:47:05.962Z,100022.09
2023-04-06T00:51:18.408Z,100014.19
2023-04-06T00:55:31.486Z,100012.31
2023-04-06T00:59:45.845Z,100004.38
2023-04-06T01:03:59.307Z,100007.03
2023-04-06T01:08:12.007Z,99989.59
2023-04-06T01:12:24.872Z,99990.50
2023-04-06T01:16:38.261Z,99996.75
2023-04-06T01:20:57.117Z,99991.41
2023-04-06T01:25:12.296Z,99981.78
2023-04-06T01:29:35.337Z,99978.31
2023-04-06T01:33:50.509Z,99974.00
2023-04-06T01:38:05.979Z,99965.97
2023-04-06T01:42:21.618Z,99965.97
2023-04-06T01:46:34.475Z,99960.72
2023-04-06T01:50:50.314Z,99949.31
2023-04-06T01:55:08.953Z,99946.63
2023-04-06T01:59:41.344Z,99941.38
2023-04-06T02:04:01.691Z,99936.13
2023-04-06T02:08:14.153Z,99925.72
2023-04-06T02:12:26.916Z,99928.44
2023-04-06T02:16:41.043Z,99918.81
2023-04-06T02:20:53.565Z,99923.22
2023-04-06T02:25:07.669Z,99922.31
2023-04-06T02:29:20.121Z,99917.91
2023-04-06T02:33:32.516Z,99920.53
2023-04-06T02:37:45.965Z,99906.44
2023-04-06T02:41:58.545Z,99909.84
2023-04-06T02:46:12.553Z,99896.75
2023-04-06T02:50:25.683Z,99903.78
2023-04-06T02:54:45.073Z,99910.78
2023-04-06T02:58:57.920Z,99899.22
2023-04-06T03:03:15.142Z,99900.00
2023-04-06T03:07:31.643Z,99905.16
2023-04-06T03:11:44.390Z,99906.72
2023-04-06T03:15:56.933Z,99905.88
2023-04-06T03:20:10.147Z,99900.59
2023-04-06T03:24:22.518Z,99904.81
2023-04-06T03:28:35.229Z,99908.34
2023-04-06T03:32:51.812Z,99905.69
2023-04-06T03:37:10.335Z,99910.88
2023-04-06T03:41:29.610Z,99920.56
2023-04-06T03:46:04.904Z,99916.94
2023-04-06T03:50:17.578Z,99915.28
2023-04-06T03:54:30.610Z,99913.63
2023-04-06T03:58:42.964Z,99918.97
2023-04-06T04:02:58.146Z,99919.84
2023-04-06T04:07:10.740Z,99928.66
2023-04-06T04:11:23.130Z,99924.28
2023-04-06T04:15:41.345Z,99926.94
2023-04-06T04:19:55.132Z,99923.47
2023-04-06T04:24:07.689Z,99917.31
2023-04-06T04:28:21.795Z,99923.41
2023-04-06T04:32:34.927Z,99927.75
2023-04-06T04:36:50.256Z,99930.28
2023-04-06T04:41:09.922Z,99932.84
2023-04-06T04:45:25.769Z,99930.34
2023-04-06T04:49:39.122Z,99934.75
2023-04-06T04:53:52.381Z,99940.06
2023-04-06T04:58:10.828Z,99941.03
2023-04-06T05:02:40.807Z,99955.88
2023-04-06T05:07:11.050Z,99947.06
2023-04-06T05:11:26.705Z,99954.28
2023-04-06T05:15:44.812Z,99954.38
2023-04-06T05:20:11.544Z,99954.44
2023-04-06T05:24:31.514Z,99955.34
2023-04-06T05:28:45.944Z,99957.06
2023-04-06T05:33:01.711Z,99957.06
2023-04-06T05:37:21.805Z,99959.88
2023-04-06T05:41:34.416Z,99958.16
2023-04-06T05:45:48.942Z,99953.81
2023-04-06T05:50:01.507Z,99944.97
2023-04-06T05:54:19.785Z,99953.75
2023-04-06T05:58:32.766Z,99952.88
2023-04-06T06:02:46.502Z,99956.44
2023-04-06T06:07:04.912Z,99958.28
2023-04-06T06:11:23.150Z,99955.72
2023-04-06T06:15:36.026Z,99953.06
2023-04-06T06:19:49.174Z,99949.63
2023-04-06T06:24:02.645Z,99952.41
2023-04-06T06:28:15.356Z,99961.31
2023-04-06T06:32:28.837Z,99962.13
2023-04-06T06:36:41.388Z,99959.53
2023-04-06T06:40:56.925Z,99960.34
2023-04-06T06:45:12.572Z,99964.72
2023-04-06T06:49:25.984Z,99963.09
2023-04-06T06:53:38.534Z,99969.28
2023-04-06T06:57:50.999Z,99970.16
2023-04-06T07:02:05.711Z,99980.69
2023-04-06T07:06:18.104Z,99989.50
2023-04-06T07:10:30.814Z,99991.22
2023-04-06T07:14:43.345Z,99994.72
2023-04-06T07:18:55.714Z,99998.25
2023-04-06T07:23:08.880Z,99996.50
2023-04-06T07:27:21.588Z,99996.53
2023-04-06T07:31:34.790Z,100002.66
2023-04-06T07:35:48.011Z,99998.28
2023-04-06T07:40:01.491Z,100000.84
2023-04-06T07:44:16.387Z,100001.63
2023-04-06T07:48:29.092Z,99996.00
2023-04-06T07:52:41.589Z,100006.88
2023-04-06T07:56:54.722Z,100000.44
2023-04-06T08:01:07.477Z,99993.53
2023-04-06T08:05:19.995Z,100003.53
2023-04-06T08:09:32.557Z,100010.69
2023-04-06T08:13:45.066Z,100005.16
2023-04-06T08:17:58.575Z,99994.31
2023-04-06T08:22:11.491Z,99995.44
2023-04-06T08:26:24.058Z,100002.13
2023-04-06T08:30:37.055Z,99997.81
2023-04-06T08:34:49.508Z,100009.16
2023-04-06T08:39:02.491Z,100008.06
2023-04-06T08:43:16.197Z,100001.41
2023-04-06T08:47:29.431Z,99996.28
2023-04-06T08:51:43.677Z,100000.34
2023-04-06T08:55:59.326Z,100011.41
2023-04-06T09:00:12.898Z,100014.13
2023-04-06T09:04:25.586Z,100003.06
2023-04-06T09:08:41.556Z,100002.31
2023-04-06T09:13:04.685Z,100002.00
2023-04-06T09:17:28.659Z,100001.13
2023-04-06T09:21:41.412Z,100007.13
2023-04-06T09:25:53.850Z,99996.88
2023-04-06T09:30:15.463Z,99993.78
2023-04-06T09:34:28.051Z,100004.72
2023-04-06T09:38:56.372Z,99997.94
2023-04-06T09:43:08.858Z,99998.56
2023-04-06T09:47:26.399Z,99998.84
2023-04-06T09:51:50.922Z,99996.16
2023-04-06T09:56:05.761Z,99997.94
2023-04-06T10:00:22.436Z,99983.00
2023-04-06T10:04:45.713Z,99986.00
2023-04-06T10:08:59.179Z,99990.66
2023-04-06T10:13:12.677Z,99989.44
2023-04-06T10:17:27.868Z,99984.22
2023-04-06T10:21:44.530Z,99989.38
2023-04-06T10:26:00.902Z,99995.31
2023-04-06T10:30:18.472Z,99993.22
2023-04-06T10:34:37.154Z,99989.16
2023-04-06T10:39:00.042Z,99992.78
2023-04-06T10:43:23.680Z,99984.09
2023-04-06T10:47:42.507Z,99984.53
2023-04-06T10:51:58.766Z,99990.56
2023-04-06T10:56:13.357Z,99987.88
2023-04-06T11:00:33.240Z,99982.81
2023-04-06T11:04:58.732Z,99976.31
2023-04-06T11:09:11.254Z,99993.53
2023-04-06T11:13:23.753Z,99996.25
2023-04-06T11:17:38.509Z,99982.25
2023-04-06T11:21:51.235Z,99986.97
2023-04-06T11:26:04.216Z,99978.66
2023-04-06T11:30:17.065Z,99981.66
2023-04-06T11:34:38.378Z,99977.78
2023-04-06T11:38:51.462Z,99983.28
2023-04-06T11:43:06.016Z,99974.25
2023-04-06T11:47:18.633Z,99974.97
2023-04-06T11:51:32.339Z,99980.56
2023-04-06T11:55:48.601Z,99973.00
2023-04-06T12:00:01.315Z,99973.75
2023-04-06T12:04:13.818Z,99968.94
2023-04-06T12:08:27.206Z,99975.88
2023-04-06T12:12:41.113Z,99962.41
2023-04-06T12:16:53.636Z,99976.66
2023-04-06T12:21:06.725Z,99977.22
2023-04-06T12:25:19.268Z,99978.47
2023-04-06T12:29:31.984Z,99965.59
2023-04-06T12:33:46.345Z,99969.50
2023-04-06T12:37:58.867Z,99982.69
2023-04-06T12:42:13.889Z,99979.81
2023-04-06T12:46:26.507Z,99970.78
2023-04-06T12:50:39.279Z,99976.09
2023-04-06T12:54:54.125Z,99976.50
2023-04-06T12:59:06.852Z,99972.94
2023-04-06T13:03:21.268Z,99988.75
2023-04-06T13:07:33.829Z,99981.59
2023-04-06T13:11:47.198Z,99981.69
2023-04-06T13:16:08.464Z,99978.69
2023-04-06T13:20:21.082Z,99983.34
2023-04-06T13:24:33.783Z,99984.19
2023-04-06T13:28:46.445Z,99982.66
2023-04-06T13:32:59.323Z,99990.03
2023-04-06T13:37:14.555Z,99986.41
2023-04-06T13:41:27.695Z,99989.78
2023-04-06T13:45:40.826Z,99987.91
2023-04-06T13:49:54.389Z,99994.00
2023-04-06T13:54:06.869Z,100007.19
2023-04-06T13:58:19.434Z,99996.88
2023-04-06T14:02:32.033Z,100000.31
2023-04-06T14:06:46.928Z,99997.91
2023-04-06T14:10:59.467Z,100000.53
2023-04-06T14:15:15.236Z,100003.03
2023-04-06T14:19:27.667Z,100003.16
2023-04-06T14:23:40.508Z,100007.50
2023-04-06T14:27:52.939Z,100010.22
2023-04-06T14:32:05.396Z,100016.97
2023-04-06T14:36:18.530Z,100017.50
2023-04-06T14:40:31.315Z,100025.75
2023-04-06T14:44:46.135Z,100036.38
2023-04-06T14:48:59.122Z,100033.31
2023-04-06T14:53:12.768Z,100036.34
2023-04-06T14:57:25.346Z,100034.00
2023-04-06T15:01:38.729Z,100045.53
2023-04-06T15:05:51.334Z,100043.00
2023-04-06T15:10:04.076Z,100049.25
2023-04-06T15:14:16.603Z,100053.59
2023-04-06T15:18:29.013Z,100052.03
2023-04-06T15:22:41.655Z,100058.50
2023-04-06T15:26:53.992Z,100070.84
2023-04-06T15:31:28.330Z,100073.84
2023-04-06T15:35:49.382Z,100072.44
2023-04-06T15:40:02.045Z,100081.84
2023-04-06T15:44:14.449Z,100079.06
2023-04-06T15:48:26.882Z,100084.53
2023-04-06T15:52:40.188Z,100075.78
2023-04-06T15:56:52.653Z,100077.88
2023-04-06T16:01:19.159Z,100084.09
2023-04-06T16:05:34.561Z,100092.22
2023-04-06T16:09:47.395Z,100097.00
2023-04-06T16:14:00.446Z,100096.00
2023-04-06T16:18:13.092Z,100096.88
2023-04-06T16:22:25.522Z,100102.03
2023-04-06T16:26:37.924Z,100104.66
2023-04-06T16:30:50.324Z,100100.34
2023-04-06T16:35:04.412Z,100109.94
2023-04-06T16:39:17.476Z,100118.94
2023-04-06T16:43:29.837Z,100111.19
2023-04-06T16:47:42.333Z,100114.66
2023-04-06T16:51:54.844Z,100114.88
2023-04-06T17:00:22.551Z,100113.88
2023-04-06T17:04:35.019Z,100125.53
2023-04-06T17:08:48.520Z,100121.09
2023-04-06T17:13:01.267Z,100129.03
2023-04-06T17:17:14.089Z,100131.78
2023-04-06T17:21:26.828Z,100145.94
2023-04-06T17:25:39.425Z,100140.69
2023-04-06T17:29:51.788Z,100146.00
2023-04-06T17:34:04.134Z,100149.53
2023-04-06T17:38:16.668Z,100151.34
2023-04-06T17:42:29.213Z,100156.66
2023-04-06T17:46:41.929Z,100156.72
2023-04-06T17:50:54.564Z,100165.53
2023-04-06T17:55:07.305Z,100168.19
2023-04-06T17:59:19.808Z,100174.50
2023-04-06T18:03:32.248Z,100173.66
2023-04-06T18:07:44.818Z,100181.63
2023-04-06T18:11:57.480Z,100176.41
2023-04-06T18:16:09.877Z,100187.06
2023-04-06T18:20:22.453Z,100190.59
2023-04-06T18:24:42.069Z,100189.72
2023-04-06T18:28:54.805Z,100210.16
2023-04-06T18:33:08.705Z,100211.88
2023-04-06T18:37:21.125Z,100218.06
2023-04-06T18:41:33.577Z,100223.41
2023-04-06T18:45:46.312Z,100225.19
2023-04-06T18:49:58.709Z,100228.72
2023-04-06T18:54:11.157Z,100226.09
2023-04-06T18:58:25.402Z,100229.66
2023-04-06T19:02:38.323Z,100234.06
2023-04-06T19:06:51.049Z,100238.38
2023-04-06T19:11:10.047Z,100243.59
2023-04-06T19:15:22.411Z,100239.28
2023-04-06T19:19:34.915Z,100239.19
2023-04-06T19:23:50.141Z,100245.31
2023-04-06T19:28:02.552Z,100246.34
2023-04-06T19:32:15.210Z,100249.78
2023-04-06T19:36:28.679Z,100252.44
2023-04-06T19:40:41.004Z,100249.88
2023-04-06T19:44:54.003Z,100257.81
2023-04-06T19:49:06.609Z,100252.53
2023-04-06T19:53:19.019Z,100257.78
2023-04-06T19:57:31.639Z,100256.91
2023-04-06T20:01:45.704Z,100256.94
2023-04-06T20:05:58.869Z,100258.69
2023-04-06T20:10:11.394Z,100266.63
2023-04-06T20:14:24.074Z,100269.28
2023-04-06T20:18:37.399Z,100266.56
2023-04-06T20:22:50.416Z,100269.22
2023-04-06T20:27:03.547Z,100266.63
2023-04-06T20:31:16.068Z,100265.72
2023-04-06T20:35:28.525Z,100265.69
2023-04-06T20:39:41.173Z,100271.84
2023-04-06T20:43:53.677Z,100271.81
2023-04-06T20:48:06.234Z,100269.19
2023-04-06T20:52:18.791Z,100277.19
2023-04-06T20:56:31.422Z,100278.09
2023-04-06T21:00:43.815Z,100277.19
2023-04-06T21:04:56.309Z,100279.75
2023-04-06T21:09:08.689Z,100278.94
2023-04-06T21:13:21.290Z,100280.72
2023-04-06T21:17:33.747Z,100278.94
2023-04-06T21:21:46.143Z,100285.97
2023-04-06T21:25:58.734Z,100283.28
2023-04-06T21:30:11.755Z,100287.78
2023-04-06T21:34:24.284Z,100287.78
2023-04-06T21:38:36.826Z,100290.34
2023-04-06T21:42:49.126Z,100286.00
2023-04-06T21:47:01.762Z,100286.00
2023-04-06T21:51:21.629Z,100275.44
2023-04-06T21:55:33.994Z,100286.00
2023-04-06T21:59:46.468Z,100280.69
2023-04-06T22:04:00.745Z,100275.41
2023-04-06T22:08:20.852Z,100276.28
2023-04-06T22:12:42.678Z,100278.91
2023-04-06T22:16:55.045Z,100281.59
2023-04-06T22:21:08.717Z,100277.16
2023-04-06T22:25:21.066Z,100273.66
2023-04-06T22:29:33.602Z,100279.81
2023-04-06T22:33:46.017Z,100283.38
2023-04-06T22:38:00.913Z,100273.63
2023-04-06T22:42:13.449Z,100274.53
2023-04-06T22:46:26.012Z,100271.91
2023-04-06T22:50:38.424Z,100266.59
2023-04-06T22:54:51.240Z,100274.50
2023-04-06T22:59:04.065Z,100273.66
2023-04-06T23:03:16.633Z,100268.41
2023-04-06T23:07:29.624Z,100270.09
2023-04-06T23:11:42.082Z,100266.59
2023-04-06T23:15:54.587Z,100265.66
2023-04-06T23:20:07.605Z,100262.13
2023-04-06T23:24:20.075Z,100255.94
2023-04-06T23:28:32.553Z,100264.81
2023-04-06T23:32:45.045Z,100265.69
2023-04-06T23:37:01.407Z,100266.53
2023-04-06T23:41:17.132Z,100265.59
2023-04-06T23:45:29.620Z,100268.25
2023-04-06T23:49:42.055Z,100269.88
2023-04-06T23:53:54.528Z,100268.19
2023-04-06T23:58:07.066Z,100265.44
